Time;durP1;ratioP1;P1;durP2;ratioP2;P2;SDS_P1;SDS_P2;PMS_P1;PMS_P2;Temp;Humidity;BMP_temperature;BMP_pressure;BME280_temperature;BME280_humidity;BME280_pressure;Samples;Min_cycle;Max_cycle;Signal;HPM_P1;HPM_P2
2023/10/03 00:00:59;;;;;;;30.02;18.30;;;23.00;99.90;;;;;;5012879;28;20045;-78
2023/10/03 00:03:25;;;;;;;28.75;17.52;;;23.00;99.90;;;;;;4994016;28;20084;-76
2023/10/03 00:05:51;;;;;;;34.05;19.85;;;22.80;99.90;;;;;;5012738;28;20052;-80
2023/10/03 00:08:18;;;;;;;30.83;19.08;;;22.90;99.90;;;;;;5012071;28;20037;-79
2023/10/03 00:10:45;;;;;;;28.52;17.55;;;23.00;99.90;;;;;;4963493;28;20046;-77
2023/10/03 00:13:12;;;;;;;30.88;18.10;;;22.80;99.90;;;;;;4992329;28;20084;-77
2023/10/03 00:15:45;;;;;;;35.28;19.38;;;22.90;99.90;;;;;;5011925;28;20030;-77
2023/10/03 00:18:11;;;;;;;28.33;18.27;;;22.80;99.90;;;;;;5011945;28;20394;-76
2023/10/03 00:20:37;;;;;;;28.60;17.98;;;22.90;99.90;;;;;;5011857;28;20052;-79
2023/10/03 00:23:04;;;;;;;34.25;19.17;;;22.70;99.90;;;;;;4995469;28;20470;-79
2023/10/03 00:25:30;;;;;;;34.88;20.35;;;22.90;99.90;;;;;;4992141;28;20512;-80
2023/10/03 00:27:59;;;;;;;34.00;19.45;;;22.90;99.90;;;;;;4993424;28;20041;-76
2023/10/03 00:30:27;;;;;;;28.45;17.33;;;22.80;99.90;;;;;;4995470;28;20077;-80
2023/10/03 00:32:53;;;;;;;31.63;18.95;;;22.80;99.90;;;;;;5010867;28;20072;-78
2023/10/03 00:35:24;;;;;;;37.22;20.25;;;22.70;99.90;;;;;;5011750;28;20072;-78
2023/10/03 00:37:51;;;;;;;31.60;18.95;;;22.70;99.90;;;;;;4995132;28;20043;-77
2023/10/03 00:42:47;;;;;;;36.88;20.50;;;22.80;99.90;;;;;;5011787;28;20049;-79
2023/10/03 00:45:21;;;;;;;33.00;20.25;;;22.70;99.90;;;;;;5008731;28;20712;-78
2023/10/03 00:47:48;;;;;;;28.98;18.35;;;22.70;99.90;;;;;;4999261;28;20498;-76
2023/10/03 00:50:16;;;;;;;31.70;18.60;;;22.80;99.90;;;;;;5010993;28;20442;-80
2023/10/03 00:52:45;;;;;;;35.28;19.73;;;22.80;99.90;;;;;;5012224;28;20512;-76
2023/10/03 00:55:13;;;;;;;29.42;18.60;;;22.70;99.90;;;;;;5012350;28;20382;-82
2023/10/03 00:57:39;;;;;;;35.67;22.05;;;22.80;99.90;;;;;;4996347;28;20045;-77
2023/10/03 01:00:16;;;;;;;39.70;21.85;;;22.80;99.90;;;;;;4979932;28;20049;-81
2023/10/03 01:02:52;;;;;;;34.67;18.73;;;22.70;99.90;;;;;;4976548;28;20049;-82
2023/10/03 01:05:18;;;;;;;32.28;17.73;;;22.60;99.90;;;;;;5012387;28;20453;-80
2023/10/03 01:07:44;;;;;;;34.15;19.63;;;22.60;99.90;;;;;;4995597;28;20107;-79
2023/10/03 01:10:18;;;;;;;33.60;19.83;;;22.80;99.90;;;;;;5011766;28;20080;-77
2023/10/03 01:12:46;;;;;;;27.88;18.58;;;22.70;99.90;;;;;;4994748;28;20046;-80
2023/10/03 01:15:17;;;;;;;31.85;18.08;;;22.70;99.90;;;;;;4989076;28;20058;-82
2023/10/03 01:17:48;;;;;;;32.45;19.33;;;22.70;99.90;;;;;;4985789;28;20076;-79
2023/10/03 01:20:21;;;;;;;33.75;20.10;;;22.70;99.90;;;;;;4994951;28;20378;-79
2023/10/03 01:22:51;;;;;;;29.42;16.00;;;22.70;99.90;;;;;;4995227;28;20041;-80
2023/10/03 01:25:17;;;;;;;31.75;17.77;;;22.80;99.90;;;;;;4995250;28;20116;-79
2023/10/03 01:27:44;;;;;;;34.33;18.65;;;22.70;99.90;;;;;;4988153;28;20132;-79
2023/10/03 01:30:12;;;;;;;36.15;19.63;;;22.80;99.90;;;;;;4995445;28;20121;-76
2023/10/03 01:32:49;;;;;;;31.02;17.98;;;22.70;99.90;;;;;;4995098;28;20120;-79
2023/10/03 01:35:16;;;;;;;34.00;19.50;;;22.70;99.90;;;;;;4995462;28;20420;-82
2023/10/03 01:37:42;;;;;;;34.10;18.23;;;22.70;99.90;;;;;;4977189;28;20367;-77
2023/10/03 01:40:16;;;;;;;33.42;18.08;;;22.60;99.90;;;;;;4976369;28;20429;-80
2023/10/03 01:42:46;;;;;;;29.60;16.27;;;22.70;99.90;;;;;;4994415;28;20049;-76
2023/10/03 01:45:23;;;;;;;33.65;17.85;;;22.60;99.90;;;;;;5008364;28;20042;-79
2023/10/03 01:47:52;;;;;;;32.63;19.33;;;22.60;99.90;;;;;;4992181;28;20041;-77
2023/10/03 01:50:21;;;;;;;27.73;12.98;;;22.60;99.90;;;;;;4994061;28;20037;-78
2023/10/03 01:52:48;;;;;;;31.70;16.42;;;22.50;99.90;;;;;;5021345;28;20064;-76
2023/10/03 01:55:17;;;;;;;34.58;18.90;;;22.50;99.90;;;;;;4975317;28;20064;-78
2023/10/03 01:57:44;;;;;;;29.83;16.95;;;22.50;99.90;;;;;;4994842;28;20033;-77
2023/10/03 02:00:26;;;;;;;29.00;16.10;;;22.40;99.90;;;;;;4994548;28;20116;-79
2023/10/03 02:02:57;;;;;;;33.72;17.92;;;22.40;99.90;;;;;;4994419;28;20041;-78
2023/10/03 02:05:25;;;;;;;30.45;16.48;;;22.40;99.90;;;;;;5010408;28;20049;-77
2023/10/03 02:08:07;;;;;;;33.78;19.40;;;22.40;99.90;;;;;;4991491;28;20648;-77
2023/10/03 02:10:34;;;;;;;29.67;16.50;;;22.40;99.90;;;;;;5004989;28;20050;-77
2023/10/03 02:13:04;;;;;;;32.63;18.67;;;22.50;99.90;;;;;;5004111;28;20526;-78
2023/10/03 02:15:30;;;;;;;32.30;17.33;;;22.30;99.90;;;;;;4994232;28;20136;-80
2023/10/03 02:17:57;;;;;;;31.00;18.33;;;22.40;99.90;;;;;;4994874;28;20104;-79
2023/10/03 02:20:26;;;;;;;35.15;18.13;;;22.40;99.90;;;;;;5009642;28;20053;-79
2023/10/03 02:22:55;;;;;;;32.05;17.00;;;22.40;99.90;;;;;;4999984;28;20048;-79
2023/10/03 02:25:27;;;;;;;32.78;17.95;;;22.40;99.90;;;;;;4994829;28;20124;-81
2023/10/03 02:27:53;;;;;;;32.53;17.42;;;22.40;99.90;;;;;;5010609;28;20580;-79
2023/10/03 02:30:23;;;;;;;33.03;17.73;;;22.40;99.90;;;;;;4978990;28;20453;-80
2023/10/03 02:33:08;;;;;;;30.33;17.52;;;22.50;99.90;;;;;;4997852;28;20038;-78
2023/10/03 02:35:33;;;;;;;31.88;16.83;;;22.40;99.90;;;;;;5023386;28;20109;-77
2023/10/03 02:37:59;;;;;;;30.60;16.15;;;22.40;99.90;;;;;;4992380;28;20122;-79
2023/10/03 02:40:30;;;;;;;34.03;17.50;;;22.30;99.90;;;;;;5006403;28;20052;-77
2023/10/03 02:42:56;;;;;;;29.08;15.55;;;22.40;99.90;;;;;;5004395;28;20080;-79
2023/10/03 02:45:22;;;;;;;31.73;16.33;;;22.40;99.90;;;;;;4997986;28;20080;-82
2023/10/03 02:48:14;;;;;;;30.13;16.35;;;22.40;99.90;;;;;;5000194;28;20045;-77
2023/10/03 02:50:44;;;;;;;30.98;15.73;;;22.40;99.90;;;;;;5016391;28;20094;-78
2023/10/03 02:53:20;;;;;;;28.73;15.63;;;22.50;99.90;;;;;;5025184;28;20445;-76
2023/10/03 02:55:51;;;;;;;27.63;14.95;;;22.40;99.90;;;;;;5010025;28;20120;-76
2023/10/03 02:58:19;;;;;;;30.50;15.13;;;22.50;99.90;;;;;;5007342;28;20378;-76
2023/10/03 03:00:47;;;;;;;29.42;15.70;;;22.50;99.90;;;;;;5007123;28;20124;-77
2023/10/03 03:03:15;;;;;;;29.77;15.73;;;22.50;99.90;;;;;;5020946;28;20049;-82
2023/10/03 03:05:42;;;;;;;30.02;16.75;;;22.50;99.90;;;;;;4999570;28;20038;-77
2023/10/03 03:11:03;;;;;;;31.92;16.40;;;22.50;99.90;;;;;;5000343;28;20045;-79
2023/10/03 03:13:36;;;;;;;30.70;15.98;;;22.60;99.90;;;;;;5013451;28;20045;-76
2023/10/03 03:16:06;;;;;;;32.13;15.63;;;22.60;99.90;;;;;;5014074;28;20478;-79
2023/10/03 03:18:46;;;;;;;28.80;14.38;;;22.60;99.90;;;;;;4997479;28;20045;-77
2023/10/03 03:21:13;;;;;;;30.15;15.38;;;22.70;99.90;;;;;;4996127;28;20057;-79
2023/10/03 03:23:43;;;;;;;32.30;15.40;;;22.80;99.90;;;;;;5009529;28;20199;-77
2023/10/03 03:28:40;;;;;;;30.23;15.55;;;22.70;99.90;;;;;;5013213;28;20056;-76
2023/10/03 03:31:22;;;;;;;30.63;16.92;;;22.70;99.90;;;;;;5013065;28;20132;-77
2023/10/03 03:33:55;;;;;;;29.02;14.98;;;22.70;99.90;;;;;;5011672;28;20044;-75
2023/10/03 03:36:23;;;;;;;28.88;15.00;;;22.70;99.90;;;;;;4979372;28;20479;-78
2023/10/03 03:38:51;;;;;;;31.90;15.48;;;22.70;99.90;;;;;;4992965;28;20037;-78
2023/10/03 03:41:18;;;;;;;30.00;15.00;;;22.80;99.90;;;;;;4996587;28;20045;-79
2023/10/03 03:43:44;;;;;;;30.50;15.15;;;22.80;99.90;;;;;;5012179;28;20051;-73
2023/10/03 03:46:10;;;;;;;31.02;16.50;;;22.80;99.90;;;;;;5012030;28;20033;-73
2023/10/03 03:48:36;;;;;;;25.08;14.38;;;22.80;99.90;;;;;;5010252;28;20370;-75
2023/10/03 03:51:07;;;;;;;33.10;15.30;;;22.80;99.90;;;;;;5012875;28;20046;-76
2023/10/03 03:53:36;;;;;;;29.73;15.02;;;22.80;99.90;;;;;;4976879;28;20047;-73
2023/10/03 03:56:07;;;;;;;31.98;15.57;;;22.80;99.90;;;;;;4993154;28;20046;-78
2023/10/03 03:58:34;;;;;;;26.67;14.45;;;22.80;99.90;;;;;;5006200;28;20041;-72
2023/10/03 04:01:00;;;;;;;27.25;14.57;;;22.80;99.90;;;;;;5012888;28;20079;-78
2023/10/03 04:03:29;;;;;;;26.55;14.32;;;22.80;99.90;;;;;;5012598;28;20043;-74
2023/10/03 04:05:57;;;;;;;28.63;14.57;;;22.90;99.90;;;;;;5012704;28;20060;-74
2023/10/03 04:08:23;;;;;;;28.55;14.77;;;23.00;99.90;;;;;;4995403;28;20050;-80
2023/10/03 04:10:49;;;;;;;27.15;13.57;;;23.00;99.90;;;;;;4974485;28;20405;-79
2023/10/03 04:13:16;;;;;;;29.25;14.75;;;23.00;99.90;;;;;;5009499;28;20049;-78
2023/10/03 04:15:45;;;;;;;26.90;13.20;;;23.00;99.90;;;;;;4995646;28;20088;-77
2023/10/03 04:18:12;;;;;;;25.83;13.18;;;23.00;99.90;;;;;;5012836;28;20418;-78
2023/10/03 04:20:40;;;;;;;27.10;13.38;;;23.10;99.90;;;;;;4995936;28;20444;-79
2023/10/03 04:23:07;;;;;;;26.23;14.00;;;23.10;99.90;;;;;;4977478;28;20496;-78
2023/10/03 04:25:33;;;;;;;24.95;12.98;;;23.10;99.90;;;;;;5011446;28;20868;-74
2023/10/03 04:28:00;;;;;;;28.02;13.80;;;23.10;99.90;;;;;;4994787;28;20049;-73
2023/10/03 04:30:27;;;;;;;25.77;13.35;;;23.20;99.90;;;;;;4976212;28;20121;-76
2023/10/03 04:32:54;;;;;;;26.63;13.35;;;23.20;99.90;;;;;;4993741;28;20146;-75
2023/10/03 04:35:20;;;;;;;26.85;13.02;;;23.10;99.90;;;;;;5010004;28;20540;-75
2023/10/03 04:37:51;;;;;;;23.58;12.68;;;23.20;99.90;;;;;;5009484;28;20044;-74
2023/10/03 04:40:22;;;;;;;24.63;12.90;;;23.20;99.90;;;;;;5011493;28;20494;-75
2023/10/03 04:42:57;;;;;;;25.52;13.23;;;23.20;99.90;;;;;;4995612;28;20501;-74
2023/10/03 04:45:26;;;;;;;28.85;14.25;;;23.20;99.90;;;;;;5011188;28;20041;-80
2023/10/03 04:47:53;;;;;;;22.98;12.63;;;23.20;99.90;;;;;;4994608;28;20039;-79
2023/10/03 04:50:25;;;;;;;24.13;13.85;;;23.30;99.90;;;;;;5006779;28;20047;-80
2023/10/03 04:52:52;;;;;;;24.98;11.18;;;23.30;99.90;;;;;;5009590;28;20138;-76
2023/10/03 04:55:19;;;;;;;25.00;13.65;;;23.30;99.90;;;;;;4995110;28;20425;-76
2023/10/03 04:57:45;;;;;;;22.20;11.25;;;23.30;99.90;;;;;;4993172;28;20041;-76
2023/10/03 05:00:16;;;;;;;24.88;12.38;;;23.40;99.90;;;;;;5011002;28;20128;-77
2023/10/03 05:02:52;;;;;;;23.95;12.90;;;23.40;99.90;;;;;;4969949;28;20091;-75
2023/10/03 05:05:26;;;;;;;27.60;12.82;;;23.40;99.90;;;;;;4993316;28;20120;-76
2023/10/03 05:07:58;;;;;;;26.55;13.25;;;23.50;99.90;;;;;;5011504;28;20037;-78
2023/10/03 05:10:33;;;;;;;26.88;12.30;;;23.50;99.90;;;;;;4979870;28;20435;-76
2023/10/03 05:12:59;;;;;;;24.77;12.23;;;23.50;99.90;;;;;;4994904;28;20406;-79
2023/10/03 05:15:26;;;;;;;24.00;12.02;;;23.50;99.90;;;;;;5028000;28;20116;-76
2023/10/03 05:17:54;;;;;;;24.98;12.43;;;23.50;99.90;;;;;;5011008;28;20188;-80
2023/10/03 05:20:20;;;;;;;23.67;12.50;;;23.60;99.90;;;;;;4974890;28;20180;-77
2023/10/03 05:22:47;;;;;;;25.08;13.00;;;23.40;99.90;;;;;;4989069;28;20060;-76
2023/10/03 05:25:17;;;;;;;25.23;12.07;;;23.50;99.90;;;;;;5010712;28;20045;-80
2023/10/03 05:27:43;;;;;;;26.25;11.82;;;23.50;99.90;;;;;;4992893;28;20041;-79
2023/10/03 05:30:10;;;;;;;24.10;11.95;;;23.50;99.90;;;;;;5011330;28;20047;-76
2023/10/03 05:32:37;;;;;;;25.50;12.07;;;23.60;99.90;;;;;;5009936;28;20041;-79
2023/10/03 05:35:05;;;;;;;22.58;12.73;;;23.50;99.90;;;;;;5010045;28;20037;-81
2023/10/03 05:37:34;;;;;;;21.10;11.60;;;23.60;99.90;;;;;;4977662;28;20038;-75
2023/10/03 05:40:11;;;;;;;24.45;11.90;;;23.60;99.90;;;;;;5010818;28;20045;-77
2023/10/03 05:42:41;;;;;;;21.33;10.63;;;23.60;99.90;;;;;;5010978;28;20457;-79
2023/10/03 05:45:12;;;;;;;22.23;11.40;;;23.60;99.90;;;;;;5011768;28;20052;-78
2023/10/03 05:47:45;;;;;;;22.35;12.02;;;23.80;99.90;;;;;;4995227;28;20151;-69
2023/10/03 05:50:15;;;;;;;29.83;12.27;;;23.80;99.90;;;;;;4993327;28;20054;-77
2023/10/03 05:52:43;;;;;;;27.92;13.25;;;23.80;99.90;;;;;;4994779;28;20123;-80
2023/10/03 05:55:09;;;;;;;30.73;13.55;;;23.80;99.90;;;;;;5011299;28;20049;-78
2023/10/03 05:57:37;;;;;;;23.45;13.02;;;23.80;99.90;;;;;;4994420;28;20042;-76
2023/10/03 06:00:08;;;;;;;26.48;12.70;;;23.90;99.90;;;;;;4995091;28;20057;-77
2023/10/03 06:02:34;;;;;;;25.48;12.65;;;23.80;99.90;;;;;;4980165;28;20038;-78
2023/10/03 06:05:00;;;;;;;28.73;13.75;;;23.80;99.90;;;;;;4957839;28;20042;-78
2023/10/03 06:07:26;;;;;;;27.40;13.43;;;23.80;99.90;;;;;;5012064;28;20042;-76
2023/10/03 06:09:53;;;;;;;26.52;12.63;;;23.90;99.90;;;;;;4965991;28;20041;-77
2023/10/03 06:12:19;;;;;;;26.17;13.10;;;23.80;99.90;;;;;;4981382;28;20034;-78
2023/10/03 06:14:45;;;;;;;30.98;12.77;;;23.90;99.90;;;;;;4997197;28;20055;-75
2023/10/03 06:17:12;;;;;;;28.52;13.48;;;23.80;99.90;;;;;;4998846;28;20088;-76
2023/10/03 06:19:38;;;;;;;25.73;11.95;;;24.00;99.90;;;;;;5009878;28;20060;-75
2023/10/03 06:22:05;;;;;;;25.23;13.07;;;23.80;99.90;;;;;;5009844;28;20049;-75
2023/10/03 06:24:31;;;;;;;25.88;12.77;;;23.90;99.90;;;;;;4982622;28;20041;-77
2023/10/03 06:26:57;;;;;;;26.42;13.15;;;23.90;99.90;;;;;;5011011;28;20052;-74
2023/10/03 06:29:23;;;;;;;26.23;12.68;;;24.00;99.90;;;;;;5013103;28;20041;-65
2023/10/03 06:31:51;;;;;;;21.77;12.32;;;24.00;99.90;;;;;;5032085;28;20156;-75
2023/10/03 06:34:18;;;;;;;24.40;12.63;;;23.90;99.90;;;;;;5013340;28;20049;-76
2023/10/03 06:36:44;;;;;;;23.73;12.38;;;23.90;99.90;;;;;;4979813;28;20041;-75
2023/10/03 06:39:10;;;;;;;28.27;12.95;;;23.90;99.90;;;;;;5013112;28;20025;-76
2023/10/03 06:41:38;;;;;;;23.15;12.30;;;23.80;99.90;;;;;;5013576;28;20041;-78
2023/10/03 06:44:04;;;;;;;24.35;11.98;;;23.80;99.90;;;;;;5011687;28;20052;-73
2023/10/03 06:46:30;;;;;;;36.78;12.25;;;23.70;99.90;;;;;;5013581;28;20041;-76
2023/10/03 06:48:56;;;;;;;22.10;11.35;;;23.80;99.90;;;;;;5007639;28;20048;-75
2023/10/03 06:51:21;;;;;;;21.83;10.90;;;23.70;99.90;;;;;;4981108;28;20041;-77
2023/10/03 06:53:47;;;;;;;21.73;10.93;;;23.60;99.90;;;;;;4997249;28;20068;-78
2023/10/03 06:56:15;;;;;;;20.40;9.98;;;23.70;99.90;;;;;;4964766;28;20394;-77
2023/10/03 06:58:40;;;;;;;22.95;9.85;;;23.70;99.90;;;;;;4995824;28;20041;-76
2023/10/03 07:01:11;;;;;;;22.38;10.52;;;23.60;99.90;;;;;;4994157;28;20045;-77
2023/10/03 07:03:37;;;;;;;18.73;10.15;;;23.70;99.90;;;;;;4993735;28;20037;-74
2023/10/03 07:06:03;;;;;;;17.95;8.73;;;23.60;99.90;;;;;;4969433;28;20064;-79
2023/10/03 07:08:29;;;;;;;20.23;9.25;;;23.50;99.90;;;;;;4989732;28;20052;-75
2023/10/03 07:10:57;;;;;;;16.73;8.75;;;23.40;99.90;;;;;;4996341;28;20069;-78
2023/10/03 07:13:26;;;;;;;19.60;8.52;;;23.50;99.90;;;;;;4996903;28;20053;-75
2023/10/03 07:15:56;;;;;;;14.90;8.40;;;23.40;99.90;;;;;;5011543;28;20053;-77
2023/10/03 07:18:22;;;;;;;19.98;7.90;;;23.30;99.90;;;;;;5006450;28;20075;-76
2023/10/03 07:20:48;;;;;;;19.00;8.55;;;23.20;99.90;;;;;;5012200;28;20046;-76
2023/10/03 07:23:14;;;;;;;17.60;7.38;;;23.10;99.90;;;;;;4986177;28;20088;-78
2023/10/03 07:25:39;;;;;;;14.68;6.88;;;23.10;99.90;;;;;;4993140;28;20445;-76
2023/10/03 07:28:05;;;;;;;16.10;7.18;;;23.00;99.90;;;;;;4969064;28;20048;-76
2023/10/03 07:30:33;;;;;;;19.35;7.32;;;23.10;99.90;;;;;;5007869;28;20042;-76
2023/10/03 07:32:58;;;;;;;14.32;6.05;;;23.00;99.90;;;;;;4963388;28;20042;-78
2023/10/03 07:35:24;;;;;;;17.23;6.68;;;23.00;99.90;;;;;;4996617;28;20060;-75
2023/10/03 07:37:51;;;;;;;17.55;6.78;;;22.90;99.90;;;;;;4977841;28;20100;-76
2023/10/03 07:40:21;;;;;;;16.25;6.93;;;22.90;99.90;;;;;;4984857;28;20642;-74
2023/10/03 07:42:47;;;;;;;13.27;7.18;;;22.80;99.90;;;;;;5011190;28;20068;-76
2023/10/03 07:45:13;;;;;;;18.30;7.97;;;22.90;99.90;;;;;;5012565;28;20057;-76
2023/10/03 07:47:41;;;;;;;18.70;7.40;;;22.90;99.90;;;;;;4980269;28;20829;-78
2023/10/03 07:50:11;;;;;;;17.20;7.57;;;22.90;99.90;;;;;;5009963;28;20076;-75
2023/10/03 07:52:37;;;;;;;17.98;7.25;;;22.80;99.90;;;;;;4979200;28;20045;-76
2023/10/03 07:55:05;;;;;;;20.17;7.75;;;22.80;99.90;;;;;;5009109;28;20411;-74
2023/10/03 07:57:31;;;;;;;18.55;6.97;;;22.80;99.90;;;;;;4961539;28;20113;-76
2023/10/03 07:59:57;;;;;;;14.82;5.47;;;22.80;99.90;;;;;;4992845;28;20118;-76
2023/10/03 08:02:26;;;;;;;14.93;5.97;;;22.80;99.90;;;;;;4993257;28;20080;-76
2023/10/03 08:04:52;;;;;;;17.13;5.90;;;22.80;99.90;;;;;;4992927;28;20049;-75
2023/10/03 08:07:24;;;;;;;15.00;6.32;;;22.70;99.90;;;;;;5010598;28;20394;-78
2023/10/03 08:09:49;;;;;;;18.38;5.90;;;22.60;99.90;;;;;;4992408;28;20038;-75
2023/10/03 08:12:23;;;;;;;10.38;4.32;;;22.60;99.90;;;;;;4992660;28;20048;-73
2023/10/03 08:14:53;;;;;;;12.05;4.22;;;22.50;99.90;;;;;;5008650;28;20058;-76
2023/10/03 08:17:19;;;;;;;11.57;4.28;;;22.30;99.90;;;;;;5009151;28;20045;-72
2023/10/03 08:19:48;;;;;;;8.73;3.15;;;22.30;99.90;;;;;;5025351;28;20572;-75
2023/10/03 08:22:14;;;;;;;9.50;3.22;;;22.20;99.90;;;;;;5009047;28;20041;-76
2023/10/03 08:24:44;;;;;;;10.43;2.97;;;22.20;99.90;;;;;;5009996;28;20239;-74
2023/10/03 08:27:18;;;;;;;7.60;2.63;;;22.10;99.90;;;;;;5011966;28;20107;-75
2023/10/03 08:29:50;;;;;;;10.63;2.53;;;22.00;99.90;;;;;;5012051;28;20052;-75
2023/10/03 08:32:19;;;;;;;10.98;3.03;;;21.90;99.90;;;;;;5044647;28;20125;-75
2023/10/03 08:34:45;;;;;;;8.13;2.17;;;21.80;99.90;;;;;;5044990;28;20033;-76
2023/10/03 08:37:21;;;;;;;7.40;2.30;;;21.80;99.90;;;;;;5011458;28;20037;-74
2023/10/03 08:39:51;;;;;;;6.95;1.70;;;21.80;99.90;;;;;;5045177;28;20140;-75
2023/10/03 08:42:35;;;;;;;8.02;2.17;;;21.70;99.90;;;;;;5042708;28;20052;-76
2023/10/03 08:45:22;;;;;;;8.30;1.77;;;21.70;99.90;;;;;;5044434;28;20057;-74
2023/10/03 08:47:53;;;;;;;12.68;1.58;;;21.60;99.90;;;;;;5011357;28;20052;-76
2023/10/03 08:50:34;;;;;;;7.38;2.10;;;21.70;99.90;;;;;;4979295;28;20041;-76
2023/10/03 08:53:12;;;;;;;7.15;1.45;;;21.80;99.90;;;;;;5044614;28;20029;-75
2023/10/03 08:55:45;;;;;;;6.63;1.50;;;21.80;99.90;;;;;;5045007;28;20063;-76
2023/10/03 08:58:15;;;;;;;7.57;1.55;;;21.70;99.90;;;;;;5011269;28;20037;-75
2023/10/03 09:00:49;;;;;;;5.45;1.33;;;21.70;99.90;;;;;;5018960;28;20078;-74
2023/10/03 09:03:17;;;;;;;6.47;1.40;;;21.80;99.90;;;;;;4992298;28;20372;-73
2023/10/03 09:05:44;;;;;;;3.78;1.40;;;21.80;99.90;;;;;;5008667;28;20430;-75
2023/10/03 09:08:10;;;;;;;5.80;1.33;;;21.70;99.90;;;;;;5024414;28;20042;-76
2023/10/03 09:10:55;;;;;;;3.85;1.10;;;21.60;99.90;;;;;;5019521;28;20045;-73
2023/10/03 09:13:27;;;;;;;8.02;1.63;;;21.40;99.90;;;;;;4995416;28;20053;-73
2023/10/03 09:16:08;;;;;;;8.93;1.15;;;21.20;99.90;;;;;;5007806;28;20065;-74
2023/10/03 09:18:42;;;;;;;3.58;1.02;;;21.10;99.90;;;;;;5011210;28;20159;-74
2023/10/03 09:21:14;;;;;;;4.77;1.00;;;20.90;99.90;;;;;;5027077;28;20041;-73
2023/10/03 09:24:01;;;;;;;8.43;1.40;;;20.90;99.90;;;;;;5044596;28;20656;-75
2023/10/03 09:26:47;;;;;;;3.30;1.20;;;21.00;99.90;;;;;;5011271;28;20052;-75
2023/10/03 09:29:33;;;;;;;6.55;1.10;;;21.00;99.90;;;;;;5044254;28;20131;-76
2023/10/03 09:32:15;;;;;;;5.72;1.25;;;21.00;99.90;;;;;;5010911;28;20514;-78
2023/10/03 09:34:56;;;;;;;5.60;1.20;;;21.00;99.90;;;;;;4993357;28;20029;-75
2023/10/03 09:37:30;;;;;;;3.80;0.82;;;20.90;99.90;;;;;;4996359;28;20053;-75
2023/10/03 09:40:01;;;;;;;3.85;1.05;;;20.90;99.90;;;;;;5048014;28;20049;-75
2023/10/03 09:42:30;;;;;;;2.67;0.68;;;20.70;99.90;;;;;;5048445;28;20045;-73
2023/10/03 09:44:58;;;;;;;3.38;0.80;;;20.70;99.90;;;;;;5048158;28;20099;-75
2023/10/03 09:47:32;;;;;;;5.50;1.13;;;20.80;99.90;;;;;;5048335;28;20045;-75
2023/10/03 09:50:09;;;;;;;2.55;1.00;;;20.60;99.90;;;;;;5014879;28;20053;-75
2023/10/03 09:52:37;;;;;;;3.65;1.10;;;20.50;99.90;;;;;;5014944;28;20041;-74
2023/10/03 09:55:26;;;;;;;4.15;1.05;;;20.40;99.90;;;;;;5014557;28;20037;-76
2023/10/03 09:57:55;;;;;;;2.75;0.98;;;20.50;99.90;;;;;;5030943;28;20131;-72
2023/10/03 10:00:40;;;;;;;2.63;0.77;;;20.30;99.90;;;;;;5031638;28;20136;-75
2023/10/03 10:03:19;;;;;;;3.33;0.63;;;20.30;99.90;;;;;;5031051;28;20132;-74
2023/10/03 10:06:12;;;;;;;3.67;0.80;;;20.50;99.90;;;;;;5031340;28;20049;-75
2023/10/03 10:08:47;;;;;;;3.70;0.80;;;20.40;99.90;;;;;;5031339;28;20034;-73
2023/10/03 10:11:13;;;;;;;3.15;1.25;;;20.50;99.90;;;;;;5009717;28;20375;-76
2023/10/03 10:14:09;;;;;;;2.42;0.55;;;20.30;99.90;;;;;;4997773;28;20046;-75
2023/10/03 10:16:58;;;;;;;4.70;1.05;;;20.50;99.90;;;;;;5010275;28;20056;-73
2023/10/03 10:19:25;;;;;;;4.72;0.90;;;20.50;99.90;;;;;;4997605;28;20478;-75
2023/10/03 10:21:59;;;;;;;4.88;1.23;;;20.30;99.90;;;;;;4998296;28;20045;-77
2023/10/03 10:24:27;;;;;;;3.55;0.90;;;20.10;99.90;;;;;;5014775;28;20129;-76
2023/10/03 10:26:53;;;;;;;3.92;0.85;;;20.00;99.90;;;;;;4996735;28;20041;-75
2023/10/03 10:29:21;;;;;;;3.95;1.30;;;20.20;99.90;;;;;;5030401;28;20041;-79
2023/10/03 10:31:57;;;;;;;3.08;1.10;;;20.10;99.90;;;;;;4997928;28;20049;-75
2023/10/03 10:34:40;;;;;;;0.98;0.50;;;20.20;99.90;;;;;;4982957;28;20041;-75
2023/10/03 10:37:14;;;;;;;2.15;0.77;;;20.20;99.90;;;;;;5014050;28;20084;-74
2023/10/03 10:39:56;;;;;;;3.95;0.85;;;20.10;99.90;;;;;;4998797;28;20590;-74
2023/10/03 10:42:25;;;;;;;2.25;0.98;;;20.20;99.90;;;;;;5013262;28;20056;-73
2023/10/03 10:45:03;;;;;;;4.47;1.10;;;20.30;99.90;;;;;;5010874;28;20042;-75
2023/10/03 10:47:32;;;;;;;3.50;1.10;;;20.40;99.90;;;;;;5045793;28;20045;-76
2023/10/03 10:50:00;;;;;;;4.35;1.17;;;20.40;99.90;;;;;;5046369;28;20045;-75
2023/10/03 10:52:29;;;;;;;4.82;1.50;;;20.40;99.90;;;;;;4998312;28;20052;-74
2023/10/03 10:54:56;;;;;;;10.00;1.70;;;20.40;99.90;;;;;;5047524;28;20184;-75
2023/10/03 10:57:26;;;;;;;7.88;1.90;;;20.50;99.90;;;;;;5047246;28;20040;-76
2023/10/03 10:59:53;;;;;;;6.10;1.60;;;20.50;99.90;;;;;;5029893;28;20432;-78
2023/10/03 11:02:22;;;;;;;7.80;2.28;;;20.70;99.90;;;;;;5044077;28;20120;-76
2023/10/03 11:04:55;;;;;;;4.38;1.58;;;20.70;99.90;;;;;;5047480;28;20678;-74
2023/10/03 11:07:26;;;;;;;5.28;1.90;;;20.80;99.90;;;;;;5047643;28;20057;-75
2023/10/03 11:09:54;;;;;;;7.82;2.58;;;20.70;99.90;;;;;;5047808;28;20193;-75
2023/10/03 11:12:27;;;;;;;5.53;2.28;;;20.70;99.90;;;;;;5026578;28;20041;-75
2023/10/03 11:14:55;;;;;;;7.28;2.95;;;20.70;99.90;;;;;;5026051;28;20042;-76
2023/10/03 11:17:25;;;;;;;6.05;2.28;;;20.60;99.90;;;;;;4962703;28;20526;-75
2023/10/03 11:19:55;;;;;;;8.25;2.95;;;20.50;99.90;;;;;;4994300;28;20504;-76
2023/10/03 11:22:22;;;;;;;8.13;2.58;;;20.50;99.90;;;;;;5011419;28;20164;-75
2023/10/03 11:24:48;;;;;;;8.90;2.60;;;20.50;99.90;;;;;;4994670;28;20382;-75
2023/10/03 11:27:31;;;;;;;6.13;2.58;;;20.50;99.90;;;;;;4993700;28;20045;-73
2023/10/03 11:29:57;;;;;;;7.10;2.22;;;20.40;99.90;;;;;;4977784;28;20042;-75
2023/10/03 11:32:30;;;;;;;5.43;2.40;;;20.50;99.90;;;;;;4960958;28;20049;-77
2023/10/03 11:34:58;;;;;;;12.05;2.70;;;20.50;99.90;;;;;;4991937;28;20038;-77
2023/10/03 11:37:31;;;;;;;6.35;2.67;;;20.60;99.90;;;;;;4960989;28;20037;-75
2023/10/03 11:40:16;;;;;;;9.00;2.95;;;20.50;99.90;;;;;;4977552;28;20073;-76
2023/10/03 11:42:45;;;;;;;6.95;2.38;;;20.50;99.90;;;;;;4977650;28;20042;-71
2023/10/03 11:45:28;;;;;;;6.38;2.58;;;20.70;99.90;;;;;;4993265;28;20042;-77
2023/10/03 11:48:19;;;;;;;9.85;2.72;;;20.80;99.90;;;;;;4993622;28;20655;-78
2023/10/03 11:50:45;;;;;;;5.47;2.15;;;20.90;99.90;;;;;;4991562;28;20044;-78
2023/10/03 11:53:12;;;;;;;5.25;2.08;;;20.90;99.90;;;;;;4976527;28;20033;-76
2023/10/03 11:55:40;;;;;;;6.13;2.42;;;20.80;99.90;;;;;;4976990;28;20050;-77
2023/10/03 11:58:08;;;;;;;6.60;2.33;;;20.70;99.90;;;;;;4977033;28;20033;-77
2023/10/03 12:00:35;;;;;;;6.55;1.98;;;20.80;99.90;;;;;;4992323;28;20438;-78
2023/10/03 12:03:03;;;;;;;8.23;2.47;;;20.80;99.90;;;;;;4992861;28;20042;-74
2023/10/03 12:05:29;;;;;;;6.43;2.22;;;20.80;99.90;;;;;;4976089;28;20057;-75
2023/10/03 12:07:58;;;;;;;8.45;2.40;;;20.80;99.90;;;;;;4974923;28;20057;-73
2023/10/03 12:10:25;;;;;;;8.23;1.90;;;20.80;99.90;;;;;;4987570;28;20042;-75
2023/10/03 12:12:51;;;;;;;5.20;1.75;;;20.90;99.90;;;;;;4991235;28;20144;-75
2023/10/03 12:15:20;;;;;;;7.45;2.20;;;20.80;99.90;;;;;;4977776;28;20045;-75
2023/10/03 12:17:47;;;;;;;5.57;2.30;;;20.70;99.90;;;;;;4995212;28;20045;-75
2023/10/03 12:20:16;;;;;;;5.32;2.30;;;20.50;99.90;;;;;;5027359;28;20489;-77
2023/10/03 12:22:49;;;;;;;10.82;2.40;;;20.30;99.90;;;;;;5010984;28;20524;-76
2023/10/03 12:25:16;;;;;;;6.55;2.00;;;20.10;99.90;;;;;;5010290;28;20116;-74
2023/10/03 12:27:43;;;;;;;7.07;2.67;;;19.80;99.90;;;;;;5007732;28;20733;-71
2023/10/03 12:30:18;;;;;;;8.50;2.22;;;19.70;99.90;;;;;;5011382;28;20038;-74
2023/10/03 12:32:46;;;;;;;8.05;2.10;;;19.70;99.90;;;;;;5011978;28;20049;-77
2023/10/03 12:35:13;;;;;;;6.57;1.98;;;19.60;99.90;;;;;;5011145;28;20533;-73
2023/10/03 12:37:40;;;;;;;10.15;2.70;;;19.70;99.90;;;;;;5011409;28;20101;-76
2023/10/03 12:40:16;;;;;;;6.88;2.33;;;19.70;99.90;;;;;;5027642;28;20084;-72
2023/10/03 12:42:49;;;;;;;5.32;1.80;;;19.80;99.90;;;;;;5011530;28;20083;-74
2023/10/03 12:45:17;;;;;;;9.05;2.00;;;19.90;99.90;;;;;;5007686;28;20395;-72
2023/10/03 12:47:47;;;;;;;6.85;2.33;;;20.00;99.90;;;;;;4994732;28;20057;-73
2023/10/03 12:50:23;;;;;;;7.75;2.22;;;20.20;99.90;;;;;;5011134;28;20103;-72
2023/10/03 12:53:05;;;;;;;5.82;2.38;;;20.30;99.90;;;;;;5011238;28;20034;-75
2023/10/03 12:55:32;;;;;;;6.18;1.98;;;20.40;99.90;;;;;;5010899;28;20096;-75
2023/10/03 12:57:59;;;;;;;8.60;2.35;;;20.60;99.90;;;;;;5011245;28;20045;-75